sensor_id;sensor_type;location;lat;lon;timestamp;P1;durP1;ratioP1;P2;durP2;ratioP2
69991;SDS011;57332;51.320;-0.580;2022-09-23T00:00:45;9.13;;;5.13;;
69991;SDS011;57332;51.320;-0.580;2022-09-23T00:03:12;11.05;;;5.95;;
69991;SDS011;57332;51.320;-0.580;2022-09-23T00:05:40;8.55;;;4.72;;
69991;SDS011;57332;51.320;-0.580;2022-09-23T00:08:08;7.93;;;4.78;;
69991;SDS011;57332;51.320;-0.580;2022-09-23T00:10:37;7.60;;;5.20;;
69991;SDS011;57332;51.320;-0.580;2022-09-23T00:13:04;6.65;;;4.22;;
69991;SDS011;57332;51.320;-0.580;2022-09-23T00:15:36;9.23;;;4.63;;
69991;SDS011;57332;51.320;-0.580;2022-09-23T00:18:03;7.60;;;4.05;;
69991;SDS011;57332;51.320;-0.580;2022-09-23T00:20:31;7.72;;;4.93;;
69991;SDS011;57332;51.320;-0.580;2022-09-23T00:22:59;9.70;;;5.38;;
69991;SDS011;57332;51.320;-0.580;2022-09-23T00:25:26;8.13;;;4.97;;
69991;SDS011;57332;51.320;-0.580;2022-09-23T00:27:55;9.60;;;5.63;;
69991;SDS011;57332;51.320;-0.580;2022-09-23T00:30:22;8.20;;;5.22;;
69991;SDS011;57332;51.320;-0.580;2022-09-23T00:32:49;7.53;;;5.70;;
69991;SDS011;57332;51.320;-0.580;2022-09-23T00:35:18;7.75;;;5.30;;
69991;SDS011;57332;51.320;-0.580;2022-09-23T00:37:45;9.75;;;6.05;;
69991;SDS011;57332;51.320;-0.580;2022-09-23T00:40:12;13.10;;;5.82;;
69991;SDS011;57332;51.320;-0.580;2022-09-23T00:42:48;12.55;;;6.68;;
69991;SDS011;57332;51.320;-0.580;2022-09-23T00:45:17;10.90;;;6.55;;
69991;SDS011;57332;51.320;-0.580;2022-09-23T00:48:07;10.57;;;6.57;;
69991;SDS011;57332;51.320;-0.580;2022-09-23T00:50:35;9.13;;;5.65;;
69991;SDS011;57332;51.320;-0.580;2022-09-23T00:53:04;9.32;;;6.10;;
69991;SDS011;57332;51.320;-0.580;2022-09-23T00:55:33;11.02;;;6.85;;
69991;SDS011;57332;51.320;-0.580;2022-09-23T00:58:03;12.13;;;7.35;;
69991;SDS011;57332;51.320;-0.580;2022-09-23T01:00:31;11.68;;;6.65;;
69991;SDS011;57332;51.320;-0.580;2022-09-23T01:03:02;11.55;;;6.88;;
69991;SDS011;57332;51.320;-0.580;2022-09-23T01:05:31;11.85;;;7.03;;
69991;SDS011;57332;51.320;-0.580;2022-09-23T01:07:58;10.80;;;6.70;;
69991;SDS011;57332;51.320;-0.580;2022-09-23T01:10:27;10.15;;;6.57;;
69991;SDS011;57332;51.320;-0.580;2022-09-23T01:13:13;10.40;;;6.63;;
69991;SDS011;57332;51.320;-0.580;2022-09-23T01:15:48;10.95;;;6.95;;
69991;SDS011;57332;51.320;-0.580;2022-09-23T01:20:57;11.45;;;5.43;;
69991;SDS011;57332;51.320;-0.580;2022-09-23T01:26:12;13.13;;;7.22;;
69991;SDS011;57332;51.320;-0.580;2022-09-23T01:33:48;11.45;;;6.88;;
69991;SDS011;57332;51.320;-0.580;2022-09-23T01:36:20;11.18;;;6.45;;
69991;SDS011;57332;51.320;-0.580;2022-09-23T01:52:38;11.80;;;6.05;;
69991;SDS011;57332;51.320;-0.580;2022-09-23T01:55:19;10.05;;;6.40;;
69991;SDS011;57332;51.320;-0.580;2022-09-23T01:57:52;8.52;;;5.15;;
69991;SDS011;57332;51.320;-0.580;2022-09-23T02:00:21;10.88;;;6.20;;
69991;SDS011;57332;51.320;-0.580;2022-09-23T02:02:50;8.43;;;4.85;;
69991;SDS011;57332;51.320;-0.580;2022-09-23T02:05:22;8.02;;;5.18;;
69991;SDS011;57332;51.320;-0.580;2022-09-23T02:07:54;9.52;;;5.68;;
69991;SDS011;57332;51.320;-0.580;2022-09-23T02:12:52;7.82;;;5.50;;
69991;SDS011;57332;51.320;-0.580;2022-09-23T02:15:20;8.70;;;5.65;;
69991;SDS011;57332;51.320;-0.580;2022-09-23T02:17:53;9.48;;;5.93;;
69991;SDS011;57332;51.320;-0.580;2022-09-23T02:20:22;8.68;;;5.95;;
69991;SDS011;57332;51.320;-0.580;2022-09-23T02:22:59;10.20;;;5.80;;
69991;SDS011;57332;51.320;-0.580;2022-09-23T02:25:33;12.98;;;6.47;;
69991;SDS011;57332;51.320;-0.580;2022-09-23T02:30:36;9.90;;;6.38;;
69991;SDS011;57332;51.320;-0.580;2022-09-23T02:33:16;10.90;;;6.80;;
69991;SDS011;57332;51.320;-0.580;2022-09-23T02:41:04;10.10;;;7.22;;
69991;SDS011;57332;51.320;-0.580;2022-09-23T02:43:34;14.07;;;7.22;;
69991;SDS011;57332;51.320;-0.580;2022-09-23T02:46:02;11.25;;;6.53;;
69991;SDS011;57332;51.320;-0.580;2022-09-23T02:48:34;12.13;;;7.38;;
69991;SDS011;57332;51.320;-0.580;2022-09-23T02:51:03;11.73;;;6.68;;
69991;SDS011;57332;51.320;-0.580;2022-09-23T02:53:30;13.80;;;7.90;;
69991;SDS011;57332;51.320;-0.580;2022-09-23T02:56:01;11.52;;;7.13;;
69991;SDS011;57332;51.320;-0.580;2022-09-23T02:58:27;9.98;;;6.45;;
69991;SDS011;57332;51.320;-0.580;2022-09-23T03:00:59;11.10;;;6.90;;
69991;SDS011;57332;51.320;-0.580;2022-09-23T03:06:01;8.15;;;5.45;;
69991;SDS011;57332;51.320;-0.580;2022-09-23T03:08:40;10.00;;;6.15;;
69991;SDS011;57332;51.320;-0.580;2022-09-23T03:11:10;9.77;;;5.57;;
69991;SDS011;57332;51.320;-0.580;2022-09-23T03:19:08;10.40;;;6.32;;
69991;SDS011;57332;51.320;-0.580;2022-09-23T03:21:44;9.85;;;5.82;;
69991;SDS011;57332;51.320;-0.580;2022-09-23T03:24:12;9.82;;;6.65;;
69991;SDS011;57332;51.320;-0.580;2022-09-23T03:26:41;11.73;;;6.55;;
69991;SDS011;57332;51.320;-0.580;2022-09-23T03:29:09;10.45;;;6.18;;
69991;SDS011;57332;51.320;-0.580;2022-09-23T03:31:37;9.30;;;5.80;;
69991;SDS011;57332;51.320;-0.580;2022-09-23T03:34:19;8.98;;;5.90;;
69991;SDS011;57332;51.320;-0.580;2022-09-23T03:39:30;9.32;;;5.57;;
69991;SDS011;57332;51.320;-0.580;2022-09-23T03:41:59;10.35;;;5.22;;
69991;SDS011;57332;51.320;-0.580;2022-09-23T03:44:28;8.40;;;4.82;;
69991;SDS011;57332;51.320;-0.580;2022-09-23T03:46:58;7.72;;;5.30;;
69991;SDS011;57332;51.320;-0.580;2022-09-23T03:49:28;7.50;;;4.65;;
69991;SDS011;57332;51.320;-0.580;2022-09-23T03:51:58;10.35;;;5.80;;
69991;SDS011;57332;51.320;-0.580;2022-09-23T03:54:26;7.45;;;5.18;;
69991;SDS011;57332;51.320;-0.580;2022-09-23T03:56:56;8.20;;;5.50;;
69991;SDS011;57332;51.320;-0.580;2022-09-23T03:59:24;10.60;;;6.13;;
69991;SDS011;57332;51.320;-0.580;2022-09-23T04:01:51;11.02;;;6.28;;
69991;SDS011;57332;51.320;-0.580;2022-09-23T04:04:18;13.98;;;6.25;;
69991;SDS011;57332;51.320;-0.580;2022-09-23T04:06:45;8.95;;;5.38;;
69991;SDS011;57332;51.320;-0.580;2022-09-23T04:09:12;9.88;;;5.80;;
69991;SDS011;57332;51.320;-0.580;2022-09-23T04:11:39;8.77;;;5.90;;
69991;SDS011;57332;51.320;-0.580;2022-09-23T04:14:06;9.45;;;6.32;;
69991;SDS011;57332;51.320;-0.580;2022-09-23T04:16:33;10.30;;;5.38;;
69991;SDS011;57332;51.320;-0.580;2022-09-23T04:19:01;8.80;;;5.40;;
69991;SDS011;57332;51.320;-0.580;2022-09-23T04:21:28;9.90;;;6.00;;
69991;SDS011;57332;51.320;-0.580;2022-09-23T04:23:56;9.18;;;6.00;;
69991;SDS011;57332;51.320;-0.580;2022-09-23T04:26:23;10.75;;;6.15;;
69991;SDS011;57332;51.320;-0.580;2022-09-23T04:28:50;9.80;;;5.82;;
69991;SDS011;57332;51.320;-0.580;2022-09-23T04:31:17;8.90;;;5.88;;
69991;SDS011;57332;51.320;-0.580;2022-09-23T04:33:44;10.45;;;6.38;;
69991;SDS011;57332;51.320;-0.580;2022-09-23T04:36:11;10.60;;;6.15;;
69991;SDS011;57332;51.320;-0.580;2022-09-23T04:38:38;11.43;;;6.57;;
69991;SDS011;57332;51.320;-0.580;2022-09-23T04:41:07;9.05;;;5.82;;
69991;SDS011;57332;51.320;-0.580;2022-09-23T04:43:35;12.32;;;6.57;;
69991;SDS011;57332;51.320;-0.580;2022-09-23T04:46:03;10.73;;;6.75;;
69991;SDS011;57332;51.320;-0.580;2022-09-23T04:48:31;12.50;;;6.20;;
69991;SDS011;57332;51.320;-0.580;2022-09-23T04:51:05;10.32;;;6.63;;
69991;SDS011;57332;51.320;-0.580;2022-09-23T04:53:33;11.10;;;6.80;;
69991;SDS011;57332;51.320;-0.580;2022-09-23T04:56:01;10.40;;;6.07;;
69991;SDS011;57332;51.320;-0.580;2022-09-23T04:58:28;11.25;;;6.45;;
69991;SDS011;57332;51.320;-0.580;2022-09-23T05:00:55;12.80;;;7.00;;
69991;SDS011;57332;51.320;-0.580;2022-09-23T05:03:30;10.95;;;6.72;;
69991;SDS011;57332;51.320;-0.580;2022-09-23T05:08:27;11.05;;;6.05;;
69991;SDS011;57332;51.320;-0.580;2022-09-23T05:10:56;9.32;;;6.38;;
69991;SDS011;57332;51.320;-0.580;2022-09-23T05:13:23;9.35;;;6.20;;
69991;SDS011;57332;51.320;-0.580;2022-09-23T05:16:00;9.23;;;5.93;;
69991;SDS011;57332;51.320;-0.580;2022-09-23T05:18:31;9.35;;;5.70;;
69991;SDS011;57332;51.320;-0.580;2022-09-23T05:20:58;11.10;;;6.15;;
69991;SDS011;57332;51.320;-0.580;2022-09-23T05:23:25;9.60;;;6.53;;
69991;SDS011;57332;51.320;-0.580;2022-09-23T05:25:59;8.27;;;5.50;;
69991;SDS011;57332;51.320;-0.580;2022-09-23T05:28:27;9.57;;;6.65;;
69991;SDS011;57332;51.320;-0.580;2022-09-23T05:33:31;9.57;;;6.38;;
69991;SDS011;57332;51.320;-0.580;2022-09-23T05:35:59;9.82;;;5.95;;
69991;SDS011;57332;51.320;-0.580;2022-09-23T05:38:27;11.45;;;5.97;;
69991;SDS011;57332;51.320;-0.580;2022-09-23T05:41:03;9.13;;;5.97;;
69991;SDS011;57332;51.320;-0.580;2022-09-23T05:43:31;9.13;;;5.68;;
69991;SDS011;57332;51.320;-0.580;2022-09-23T05:46:05;9.68;;;5.80;;
69991;SDS011;57332;51.320;-0.580;2022-09-23T05:48:34;9.32;;;5.90;;
69991;SDS011;57332;51.320;-0.580;2022-09-23T05:51:02;9.00;;;5.20;;
69991;SDS011;57332;51.320;-0.580;2022-09-23T05:53:29;8.65;;;5.35;;
69991;SDS011;57332;51.320;-0.580;2022-09-23T05:55:58;9.65;;;5.88;;
69991;SDS011;57332;51.320;-0.580;2022-09-23T05:58:25;10.50;;;6.03;;
69991;SDS011;57332;51.320;-0.580;2022-09-23T06:00:53;8.57;;;5.53;;
69991;SDS011;57332;51.320;-0.580;2022-09-23T06:03:22;9.25;;;5.40;;
69991;SDS011;57332;51.320;-0.580;2022-09-23T06:05:55;10.02;;;6.10;;
69991;SDS011;57332;51.320;-0.580;2022-09-23T06:08:22;9.50;;;5.75;;
69991;SDS011;57332;51.320;-0.580;2022-09-23T06:10:49;9.02;;;5.50;;
69991;SDS011;57332;51.320;-0.580;2022-09-23T06:13:20;9.07;;;5.47;;
69991;SDS011;57332;51.320;-0.580;2022-09-23T06:15:47;8.45;;;5.90;;
69991;SDS011;57332;51.320;-0.580;2022-09-23T06:18:14;9.88;;;5.43;;
69991;SDS011;57332;51.320;-0.580;2022-09-23T06:20:41;10.80;;;5.50;;
69991;SDS011;57332;51.320;-0.580;2022-09-23T06:23:09;10.35;;;5.68;;
69991;SDS011;57332;51.320;-0.580;2022-09-23T06:25:36;7.22;;;5.45;;
69991;SDS011;57332;51.320;-0.580;2022-09-23T06:28:06;9.30;;;5.18;;
69991;SDS011;57332;51.320;-0.580;2022-09-23T06:30:37;8.82;;;5.80;;
69991;SDS011;57332;51.320;-0.580;2022-09-23T06:33:08;10.25;;;5.60;;
69991;SDS011;57332;51.320;-0.580;2022-09-23T06:35:35;9.32;;;5.82;;
69991;SDS011;57332;51.320;-0.580;2022-09-23T06:38:03;9.20;;;5.93;;
69991;SDS011;57332;51.320;-0.580;2022-09-23T06:40:33;7.80;;;5.78;;
69991;SDS011;57332;51.320;-0.580;2022-09-23T06:43:03;9.45;;;5.80;;
69991;SDS011;57332;51.320;-0.580;2022-09-23T06:45:30;10.05;;;5.65;;
69991;SDS011;57332;51.320;-0.580;2022-09-23T06:47:57;8.13;;;5.70;;
69991;SDS011;57332;51.320;-0.580;2022-09-23T06:50:24;9.10;;;5.85;;
69991;SDS011;57332;51.320;-0.580;2022-09-23T06:52:54;8.68;;;5.75;;
69991;SDS011;57332;51.320;-0.580;2022-09-23T06:55:22;9.07;;;5.82;;
69991;SDS011;57332;51.320;-0.580;2022-09-23T06:57:50;7.70;;;5.40;;
69991;SDS011;57332;51.320;-0.580;2022-09-23T07:00:17;8.75;;;5.95;;
69991;SDS011;57332;51.320;-0.580;2022-09-23T07:02:45;8.98;;;5.57;;
69991;SDS011;57332;51.320;-0.580;2022-09-23T07:05:15;9.98;;;7.13;;
69991;SDS011;57332;51.320;-0.580;2022-09-23T07:07:43;10.07;;;5.05;;
69991;SDS011;57332;51.320;-0.580;2022-09-23T07:10:10;11.07;;;6.75;;
69991;SDS011;57332;51.320;-0.580;2022-09-23T07:12:37;11.35;;;5.78;;
69991;SDS011;57332;51.320;-0.580;2022-09-23T07:15:05;8.95;;;5.38;;
69991;SDS011;57332;51.320;-0.580;2022-09-23T07:17:34;10.00;;;5.85;;
69991;SDS011;57332;51.320;-0.580;2022-09-23T07:20:02;9.13;;;6.20;;
69991;SDS011;57332;51.320;-0.580;2022-09-23T07:22:31;11.45;;;6.43;;
69991;SDS011;57332;51.320;-0.580;2022-09-23T07:24:58;9.45;;;6.40;;
69991;SDS011;57332;51.320;-0.580;2022-09-23T07:27:26;9.93;;;6.28;;
69991;SDS011;57332;51.320;-0.580;2022-09-23T07:29:53;9.50;;;6.25;;
69991;SDS011;57332;51.320;-0.580;2022-09-23T07:32:21;10.48;;;6.15;;
69991;SDS011;57332;51.320;-0.580;2022-09-23T07:34:48;10.68;;;6.78;;
69991;SDS011;57332;51.320;-0.580;2022-09-23T07:37:15;10.77;;;5.95;;
69991;SDS011;57332;51.320;-0.580;2022-09-23T07:39:43;9.18;;;5.90;;
69991;SDS011;57332;51.320;-0.580;2022-09-23T07:42:10;10.55;;;6.28;;
69991;SDS011;57332;51.320;-0.580;2022-09-23T07:44:40;9.35;;;6.32;;
69991;SDS011;57332;51.320;-0.580;2022-09-23T07:47:09;9.85;;;6.32;;
69991;SDS011;57332;51.320;-0.580;2022-09-23T07:49:36;10.00;;;6.32;;
69991;SDS011;57332;51.320;-0.580;2022-09-23T07:52:04;9.75;;;5.80;;
69991;SDS011;57332;51.320;-0.580;2022-09-23T07:54:31;15.48;;;7.00;;
69991;SDS011;57332;51.320;-0.580;2022-09-23T07:56:58;14.13;;;6.63;;
69991;SDS011;57332;51.320;-0.580;2022-09-23T07:59:25;12.02;;;7.13;;
69991;SDS011;57332;51.320;-0.580;2022-09-23T08:01:53;11.82;;;6.32;;
69991;SDS011;57332;51.320;-0.580;2022-09-23T08:04:23;10.20;;;6.13;;
69991;SDS011;57332;51.320;-0.580;2022-09-23T08:06:58;8.05;;;5.25;;
69991;SDS011;57332;51.320;-0.580;2022-09-23T08:09:26;9.00;;;4.90;;
69991;SDS011;57332;51.320;-0.580;2022-09-23T08:11:54;9.48;;;5.85;;
69991;SDS011;57332;51.320;-0.580;2022-09-23T08:14:21;9.20;;;5.57;;
69991;SDS011;57332;51.320;-0.580;2022-09-23T08:16:48;9.68;;;5.20;;
69991;SDS011;57332;51.320;-0.580;2022-09-23T08:19:15;9.77;;;5.53;;
69991;SDS011;57332;51.320;-0.580;2022-09-23T08:21:42;9.73;;;6.32;;
69991;SDS011;57332;51.320;-0.580;2022-09-23T08:24:13;10.65;;;6.30;;
69991;SDS011;57332;51.320;-0.580;2022-09-23T08:26:40;10.30;;;6.43;;
69991;SDS011;57332;51.320;-0.580;2022-09-23T08:29:07;11.57;;;6.85;;
69991;SDS011;57332;51.320;-0.580;2022-09-23T08:31:37;11.70;;;6.82;;
69991;SDS011;57332;51.320;-0.580;2022-09-23T08:34:04;10.88;;;6.45;;
69991;SDS011;57332;51.320;-0.580;2022-09-23T08:36:32;12.68;;;7.13;;
69991;SDS011;57332;51.320;-0.580;2022-09-23T08:38:59;13.18;;;7.35;;
69991;SDS011;57332;51.320;-0.580;2022-09-23T08:44:16;13.60;;;7.60;;
69991;SDS011;57332;51.320;-0.580;2022-09-23T08:47:03;16.35;;;8.65;;
69991;SDS011;57332;51.320;-0.580;2022-09-23T08:49:35;15.88;;;8.18;;
69991;SDS011;57332;51.320;-0.580;2022-09-23T08:52:06;18.38;;;8.57;;
69991;SDS011;57332;51.320;-0.580;2022-09-23T08:54:35;18.55;;;9.85;;
69991;SDS011;57332;51.320;-0.580;2022-09-23T08:57:02;19.67;;;9.73;;
69991;SDS011;57332;51.320;-0.580;2022-09-23T08:59:40;19.70;;;9.38;;
69991;SDS011;57332;51.320;-0.580;2022-09-23T09:02:15;19.83;;;9.57;;
69991;SDS011;57332;51.320;-0.580;2022-09-23T09:04:50;19.17;;;9.18;;
69991;SDS011;57332;51.320;-0.580;2022-09-23T09:07:20;20.63;;;10.55;;
69991;SDS011;57332;51.320;-0.580;2022-09-23T09:10:20;19.85;;;10.63;;
69991;SDS011;57332;51.320;-0.580;2022-09-23T09:15:21;20.08;;;9.73;;
69991;SDS011;57332;51.320;-0.580;2022-09-23T09:20:37;22.58;;;9.95;;
69991;SDS011;57332;51.320;-0.580;2022-09-23T09:23:28;21.67;;;10.90;;
69991;SDS011;57332;51.320;-0.580;2022-09-23T09:25:58;23.00;;;10.30;;
69991;SDS011;57332;51.320;-0.580;2022-09-23T09:28:28;24.85;;;11.43;;
69991;SDS011;57332;51.320;-0.580;2022-09-23T09:31:00;23.85;;;11.98;;
69991;SDS011;57332;51.320;-0.580;2022-09-23T09:33:34;26.50;;;11.32;;
69991;SDS011;57332;51.320;-0.580;2022-09-23T09:38:42;24.08;;;10.25;;
69991;SDS011;57332;51.320;-0.580;2022-09-23T09:41:11;25.20;;;11.73;;
69991;SDS011;57332;51.320;-0.580;2022-09-23T09:43:45;25.58;;;10.35;;
69991;SDS011;57332;51.320;-0.580;2022-09-23T09:49:08;25.63;;;12.00;;
69991;SDS011;57332;51.320;-0.580;2022-09-23T09:51:37;23.63;;;11.38;;
69991;SDS011;57332;51.320;-0.580;2022-09-23T09:54:15;25.38;;;10.38;;
69991;SDS011;57332;51.320;-0.580;2022-09-23T09:56:45;28.15;;;11.95;;
69991;SDS011;57332;51.320;-0.580;2022-09-23T09:59:35;22.75;;;11.13;;
69991;SDS011;57332;51.320;-0.580;2022-09-23T10:05:06;23.73;;;10.93;;
69991;SDS011;57332;51.320;-0.580;2022-09-23T10:07:36;22.23;;;10.60;;
69991;SDS011;57332;51.320;-0.580;2022-09-23T10:10:16;23.70;;;11.02;;
69991;SDS011;57332;51.320;-0.580;2022-09-23T10:12:58;21.00;;;9.85;;
69991;SDS011;57332;51.320;-0.580;2022-09-23T10:15:41;20.42;;;9.80;;
69991;SDS011;57332;51.320;-0.580;2022-09-23T10:18:17;20.40;;;9.68;;
69991;SDS011;57332;51.320;-0.580;2022-09-23T10:20:45;21.73;;;10.80;;
69991;SDS011;57332;51.320;-0.580;2022-09-23T10:23:17;18.83;;;10.10;;
69991;SDS011;57332;51.320;-0.580;2022-09-23T10:25:55;22.08;;;10.45;;
69991;SDS011;57332;51.320;-0.580;2022-09-23T10:31:12;19.50;;;8.98;;
69991;SDS011;57332;51.320;-0.580;2022-09-23T10:33:43;18.77;;;8.77;;
69991;SDS011;57332;51.320;-0.580;2022-09-23T10:36:16;17.73;;;8.88;;
69991;SDS011;57332;51.320;-0.580;2022-09-23T10:38:43;15.80;;;8.02;;
69991;SDS011;57332;51.320;-0.580;2022-09-23T10:41:18;16.30;;;7.65;;
69991;SDS011;57332;51.320;-0.580;2022-09-23T10:44:18;15.18;;;8.25;;
69991;SDS011;57332;51.320;-0.580;2022-09-23T10:47:18;13.82;;;7.20;;
69991;SDS011;57332;51.320;-0.580;2022-09-23T10:57:34;12.93;;;6.90;;
69991;SDS011;57332;51.320;-0.580;2022-09-23T11:11:04;13.25;;;6.43;;
69991;SDS011;57332;51.320;-0.580;2022-09-23T11:26:02;7.93;;;4.30;;
69991;SDS011;57332;51.320;-0.580;2022-09-23T11:38:49;7.82;;;4.78;;
69991;SDS011;57332;51.320;-0.580;2022-09-23T11:41:27;8.35;;;4.72;;
69991;SDS011;57332;51.320;-0.580;2022-09-23T11:43:59;7.82;;;4.97;;
69991;SDS011;57332;51.320;-0.580;2022-09-23T11:46:32;8.13;;;5.00;;
69991;SDS011;57332;51.320;-0.580;2022-09-23T11:51:39;6.78;;;4.70;;
69991;SDS011;57332;51.320;-0.580;2022-09-23T11:54:11;8.35;;;4.60;;
69991;SDS011;57332;51.320;-0.580;2022-09-23T11:56:50;6.95;;;4.53;;
69991;SDS011;57332;51.320;-0.580;2022-09-23T11:59:30;7.03;;;4.15;;
69991;SDS011;57332;51.320;-0.580;2022-09-23T12:07:34;5.88;;;3.55;;
69991;SDS011;57332;51.320;-0.580;2022-09-23T12:10:06;6.32;;;3.83;;
69991;SDS011;57332;51.320;-0.580;2022-09-23T12:21:25;5.32;;;3.53;;
69991;SDS011;57332;51.320;-0.580;2022-09-23T12:24:08;6.05;;;3.50;;
69991;SDS011;57332;51.320;-0.580;2022-09-23T12:27:02;5.75;;;3.42;;
69991;SDS011;57332;51.320;-0.580;2022-09-23T12:29:32;4.70;;;3.33;;
69991;SDS011;57332;51.320;-0.580;2022-09-23T12:32:01;6.57;;;3.40;;
69991;SDS011;57332;51.320;-0.580;2022-09-23T12:34:39;6.25;;;3.40;;
69991;SDS011;57332;51.320;-0.580;2022-09-23T12:37:09;6.30;;;3.40;;
69991;SDS011;57332;51.320;-0.580;2022-09-23T12:39:36;4.78;;;3.33;;
69991;SDS011;57332;51.320;-0.580;2022-09-23T12:42:05;5.32;;;3.42;;
69991;SDS011;57332;51.320;-0.580;2022-09-23T12:44:40;5.32;;;3.10;;
69991;SDS011;57332;51.320;-0.580;2022-09-23T12:49:46;4.85;;;3.28;;
69991;SDS011;57332;51.320;-0.580;2022-09-23T12:54:44;5.20;;;2.95;;
69991;SDS011;57332;51.320;-0.580;2022-09-23T12:57:12;4.63;;;2.95;;
69991;SDS011;57332;51.320;-0.580;2022-09-23T13:05:18;4.78;;;3.13;;
69991;SDS011;57332;51.320;-0.580;2022-09-23T13:08:15;4.55;;;2.75;;
69991;SDS011;57332;51.320;-0.580;2022-09-23T13:10:51;3.50;;;2.30;;
69991;SDS011;57332;51.320;-0.580;2022-09-23T13:15:47;3.33;;;2.10;;
69991;SDS011;57332;51.320;-0.580;2022-09-23T13:20:44;3.70;;;2.38;;
69991;SDS011;57332;51.320;-0.580;2022-09-23T13:23:22;3.75;;;2.45;;
69991;SDS011;57332;51.320;-0.580;2022-09-23T13:25:54;3.58;;;2.50;;
69991;SDS011;57332;51.320;-0.580;2022-09-23T13:28:34;4.00;;;2.60;;
69991;SDS011;57332;51.320;-0.580;2022-09-23T13:31:12;3.78;;;2.70;;
69991;SDS011;57332;51.320;-0.580;2022-09-23T13:33:44;3.97;;;2.50;;
69991;SDS011;57332;51.320;-0.580;2022-09-23T13:36:13;2.97;;;2.35;;
69991;SDS011;57332;51.320;-0.580;2022-09-23T13:38:40;3.85;;;2.35;;
69991;SDS011;57332;51.320;-0.580;2022-09-23T13:43:40;5.03;;;2.88;;
69991;SDS011;57332;51.320;-0.580;2022-09-23T13:46:09;3.85;;;2.75;;
69991;SDS011;57332;51.320;-0.580;2022-09-23T13:48:39;5.80;;;3.05;;
69991;SDS011;57332;51.320;-0.580;2022-09-23T13:51:10;3.97;;;2.42;;
69991;SDS011;57332;51.320;-0.580;2022-09-23T13:53:37;5.40;;;2.90;;
69991;SDS011;57332;51.320;-0.580;2022-09-23T13:58:31;4.07;;;3.05;;
69991;SDS011;57332;51.320;-0.580;2022-09-23T14:00:58;4.22;;;2.60;;
69991;SDS011;57332;51.320;-0.580;2022-09-23T14:06:12;4.43;;;2.83;;
69991;SDS011;57332;51.320;-0.580;2022-09-23T14:08:44;4.38;;;3.00;;
69991;SDS011;57332;51.320;-0.580;2022-09-23T14:11:15;4.38;;;2.97;;
69991;SDS011;57332;51.320;-0.580;2022-09-23T14:13:43;5.88;;;2.97;;
69991;SDS011;57332;51.320;-0.580;2022-09-23T14:16:19;5.10;;;3.00;;
69991;SDS011;57332;51.320;-0.580;2022-09-23T14:18:54;4.63;;;3.00;;
69991;SDS011;57332;51.320;-0.580;2022-09-23T14:21:33;5.15;;;2.83;;
69991;SDS011;57332;51.320;-0.580;2022-09-23T14:26:45;4.65;;;2.47;;
69991;SDS011;57332;51.320;-0.580;2022-09-23T14:29:19;4.57;;;2.72;;
69991;SDS011;57332;51.320;-0.580;2022-09-23T14:31:52;4.15;;;2.70;;
69991;SDS011;57332;51.320;-0.580;2022-09-23T14:37:01;3.88;;;2.80;;
69991;SDS011;57332;51.320;-0.580;2022-09-23T14:39:55;4.60;;;3.17;;
69991;SDS011;57332;51.320;-0.580;2022-09-23T14:42:24;4.50;;;3.00;;
69991;SDS011;57332;51.320;-0.580;2022-09-23T14:47:25;5.05;;;3.15;;
69991;SDS011;57332;51.320;-0.580;2022-09-23T14:49:58;5.38;;;3.30;;
69991;SDS011;57332;51.320;-0.580;2022-09-23T14:52:49;5.72;;;3.38;;
69991;SDS011;57332;51.320;-0.580;2022-09-23T14:55:26;4.65;;;3.40;;
69991;SDS011;57332;51.320;-0.580;2022-09-23T14:58:03;4.60;;;3.28;;
69991;SDS011;57332;51.320;-0.580;2022-09-23T15:00:32;4.03;;;3.10;;
69991;SDS011;57332;51.320;-0.580;2022-09-23T15:03:10;4.32;;;2.95;;
69991;SDS011;57332;51.320;-0.580;2022-09-23T15:05:43;5.93;;;2.95;;
69991;SDS011;57332;51.320;-0.580;2022-09-23T15:08:19;4.07;;;2.72;;
69991;SDS011;57332;51.320;-0.580;2022-09-23T15:10:50;5.72;;;2.95;;
69991;SDS011;57332;51.320;-0.580;2022-09-23T15:13:27;5.07;;;3.20;;
69991;SDS011;57332;51.320;-0.580;2022-09-23T15:15:58;4.45;;;3.30;;
69991;SDS011;57332;51.320;-0.580;2022-09-23T15:18:31;4.22;;;2.97;;
69991;SDS011;57332;51.320;-0.580;2022-09-23T15:21:15;4.70;;;3.17;;
69991;SDS011;57332;51.320;-0.580;2022-09-23T15:23:43;4.10;;;2.80;;
69991;SDS011;57332;51.320;-0.580;2022-09-23T15:28:46;4.55;;;3.05;;
69991;SDS011;57332;51.320;-0.580;2022-09-23T15:31:17;5.38;;;3.40;;
69991;SDS011;57332;51.320;-0.580;2022-09-23T15:33:47;4.30;;;2.92;;
69991;SDS011;57332;51.320;-0.580;2022-09-23T15:36:24;5.55;;;2.90;;
69991;SDS011;57332;51.320;-0.580;2022-09-23T15:39:03;5.45;;;3.30;;
69991;SDS011;57332;51.320;-0.580;2022-09-23T15:41:35;4.97;;;3.20;;
69991;SDS011;57332;51.320;-0.580;2022-09-23T15:46:44;7.22;;;3.70;;
69991;SDS011;57332;51.320;-0.580;2022-09-23T15:49:17;5.75;;;3.90;;
69991;SDS011;57332;51.320;-0.580;2022-09-23T15:51:51;6.57;;;3.50;;
69991;SDS011;57332;51.320;-0.580;2022-09-23T15:54:19;5.38;;;3.60;;
69991;SDS011;57332;51.320;-0.580;2022-09-23T15:56:49;5.57;;;3.58;;
69991;SDS011;57332;51.320;-0.580;2022-09-23T15:59:16;6.07;;;3.33;;
69991;SDS011;57332;51.320;-0.580;2022-09-23T16:01:43;6.68;;;3.80;;
69991;SDS011;57332;51.320;-0.580;2022-09-23T16:04:11;6.20;;;3.72;;
69991;SDS011;57332;51.320;-0.580;2022-09-23T16:06:47;4.68;;;3.42;;
69991;SDS011;57332;51.320;-0.580;2022-09-23T16:09:38;5.22;;;3.45;;
69991;SDS011;57332;51.320;-0.580;2022-09-23T16:12:36;5.05;;;3.15;;
69991;SDS011;57332;51.320;-0.580;2022-09-23T16:15:24;7.13;;;3.35;;
69991;SDS011;57332;51.320;-0.580;2022-09-23T16:20:59;5.38;;;3.35;;
69991;SDS011;57332;51.320;-0.580;2022-09-23T16:30:41;4.93;;;2.92;;
69991;SDS011;57332;51.320;-0.580;2022-09-23T16:33:20;5.63;;;3.40;;
69991;SDS011;57332;51.320;-0.580;2022-09-23T16:38:56;5.20;;;3.47;;
69991;SDS011;57332;51.320;-0.580;2022-09-23T16:44:40;6.53;;;3.67;;
69991;SDS011;57332;51.320;-0.580;2022-09-23T16:50:28;6.15;;;3.80;;
69991;SDS011;57332;51.320;-0.580;2022-09-23T16:53:31;6.53;;;3.50;;
69991;SDS011;57332;51.320;-0.580;2022-09-23T16:56:40;5.82;;;3.50;;
69991;SDS011;57332;51.320;-0.580;2022-09-23T16:59:46;6.80;;;3.33;;
69991;SDS011;57332;51.320;-0.580;2022-09-23T17:02:49;5.40;;;3.67;;
69991;SDS011;57332;51.320;-0.580;2022-09-23T17:08:58;5.97;;;3.50;;
69991;SDS011;57332;51.320;-0.580;2022-09-23T17:11:32;5.25;;;3.50;;
69991;SDS011;57332;51.320;-0.580;2022-09-23T17:14:17;6.22;;;4.00;;
69991;SDS011;57332;51.320;-0.580;2022-09-23T17:17:16;5.20;;;3.60;;
69991;SDS011;57332;51.320;-0.580;2022-09-23T17:20:04;5.82;;;3.90;;
69991;SDS011;57332;51.320;-0.580;2022-09-23T17:22:43;5.68;;;3.65;;
69991;SDS011;57332;51.320;-0.580;2022-09-23T17:25:27;6.95;;;4.30;;
69991;SDS011;57332;51.320;-0.580;2022-09-23T17:28:20;5.63;;;3.97;;
69991;SDS011;57332;51.320;-0.580;2022-09-23T17:31:01;6.32;;;4.00;;
69991;SDS011;57332;51.320;-0.580;2022-09-23T17:33:57;5.18;;;3.58;;
69991;SDS011;57332;51.320;-0.580;2022-09-23T17:36:49;6.68;;;3.83;;
69991;SDS011;57332;51.320;-0.580;2022-09-23T17:39:20;5.13;;;3.60;;
69991;SDS011;57332;51.320;-0.580;2022-09-23T17:42:10;5.75;;;3.33;;
69991;SDS011;57332;51.320;-0.580;2022-09-23T17:45:16;7.25;;;4.50;;
69991;SDS011;57332;51.320;-0.580;2022-09-23T17:48:08;7.55;;;4.50;;
69991;SDS011;57332;51.320;-0.580;2022-09-23T17:53:51;6.25;;;3.80;;
69991;SDS011;57332;51.320;-0.580;2022-09-23T17:56:57;8.75;;;4.60;;
69991;SDS011;57332;51.320;-0.580;2022-09-23T18:05:40;6.32;;;4.25;;
69991;SDS011;57332;51.320;-0.580;2022-09-23T18:08:52;7.93;;;4.70;;
69991;SDS011;57332;51.320;-0.580;2022-09-23T18:12:04;10.25;;;4.85;;
69991;SDS011;57332;51.320;-0.580;2022-09-23T18:18:08;7.68;;;4.03;;
69991;SDS011;57332;51.320;-0.580;2022-09-23T18:20:38;7.60;;;4.88;;